createdAt,value
2019-01-17T00:00:41.957Z,996.27
2019-01-17T00:01:41.946Z,996.16
2019-01-17T00:02:41.935Z,996.20
2019-01-17T00:03:41.924Z,996.21
2019-01-17T00:04:41.915Z,996.18
2019-01-17T00:05:41.907Z,996.09
2019-01-17T00:06:41.892Z,996.08
2019-01-17T00:07:41.882Z,996.04
2019-01-17T00:08:41.875Z,995.96
2019-01-17T00:09:41.862Z,995.96
2019-01-17T00:10:41.851Z,995.95
2019-01-17T00:11:41.843Z,995.88
2019-01-17T00:12:41.831Z,995.94
2019-01-17T00:13:41.820Z,995.96
2019-01-17T00:14:41.809Z,995.96
2019-01-17T00:15:41.799Z,996.02
2019-01-17T00:16:41.787Z,996.02
2019-01-17T00:17:41.777Z,995.95
2019-01-17T00:18:41.767Z,995.93
2019-01-17T00:19:41.757Z,995.91
2019-01-17T00:20:41.747Z,995.95
2019-01-17T00:21:41.736Z,995.90
2019-01-17T00:22:41.724Z,995.82
2019-01-17T00:23:41.714Z,995.88
2019-01-17T00:24:41.702Z,995.86
2019-01-17T00:25:41.693Z,995.89
2019-01-17T00:26:41.682Z,995.93
2019-01-17T00:27:41.670Z,995.91
2019-01-17T00:28:41.661Z,995.96
2019-01-17T00:29:41.654Z,996.00
2019-01-17T00:30:41.639Z,996.01
2019-01-17T00:31:41.629Z,996.04
2019-01-17T00:32:41.617Z,996.00
2019-01-17T00:33:41.610Z,996.01
2019-01-17T00:34:41.597Z,996.03
2019-01-17T00:35:41.588Z,996.00
2019-01-17T00:36:41.576Z,995.99
2019-01-17T00:37:41.565Z,995.89
2019-01-17T00:38:41.554Z,995.76
2019-01-17T00:39:41.546Z,995.76
2019-01-17T00:40:41.533Z,995.67
2019-01-17T00:41:41.522Z,995.63
2019-01-17T00:42:41.511Z,995.65
2019-01-17T00:43:41.505Z,995.71
2019-01-17T00:44:41.494Z,995.74
2019-01-17T00:45:41.485Z,995.76
2019-01-17T00:46:41.470Z,995.74
2019-01-17T00:47:41.459Z,995.78
2019-01-17T00:48:41.448Z,995.85
2019-01-17T00:49:41.438Z,995.83
2019-01-17T00:50:41.429Z,995.80
2019-01-17T00:51:41.417Z,995.79
2019-01-17T00:52:41.406Z,995.75
2019-01-17T00:53:41.395Z,995.73
2019-01-17T00:54:41.386Z,995.72
2019-01-17T00:55:41.376Z,995.64
2019-01-17T00:56:41.364Z,995.55
2019-01-17T00:57:41.354Z,995.59
2019-01-17T00:58:41.346Z,995.54
2019-01-17T00:59:41.330Z,995.52
2019-01-17T01:00:41.321Z,995.48
2019-01-17T01:01:41.312Z,995.53
2019-01-17T01:02:41.300Z,995.54
2019-01-17T01:03:41.291Z,995.56
2019-01-17T01:04:41.283Z,995.56
2019-01-17T01:05:41.268Z,995.58
2019-01-17T01:06:41.260Z,995.61
2019-01-17T01:07:41.247Z,995.60
2019-01-17T01:08:41.237Z,995.61
2019-01-17T01:09:41.229Z,995.61
2019-01-17T01:10:41.217Z,995.54
2019-01-17T01:11:41.210Z,995.53
2019-01-17T01:12:41.194Z,995.51
2019-01-17T01:13:41.183Z,995.47
2019-01-17T01:14:41.174Z,995.41
2019-01-17T01:15:41.164Z,995.43
2019-01-17T01:16:41.152Z,995.45
2019-01-17T01:17:41.147Z,995.49
2019-01-17T01:18:41.132Z,995.50
2019-01-17T01:19:41.119Z,995.48
2019-01-17T01:20:41.110Z,995.51
2019-01-17T01:21:42.302Z,995.48
2019-01-17T01:22:41.088Z,995.52
2019-01-17T01:23:41.077Z,995.54
2019-01-17T01:24:41.068Z,995.57
2019-01-17T01:25:41.056Z,995.58
2019-01-17T01:26:41.049Z,995.55
2019-01-17T01:27:41.038Z,995.65
2019-01-17T01:28:41.024Z,995.68
2019-01-17T01:29:41.015Z,995.67
2019-01-17T01:30:41.004Z,995.64
2019-01-17T01:31:40.993Z,995.58
2019-01-17T01:32:40.982Z,995.42
2019-01-17T01:33:40.972Z,995.37
2019-01-17T01:34:40.974Z,995.31
2019-01-17T01:35:40.953Z,995.26
2019-01-17T01:36:40.941Z,995.31
2019-01-17T01:37:40.929Z,995.21
2019-01-17T01:38:40.920Z,995.27
2019-01-17T01:39:40.911Z,995.26
2019-01-17T01:40:40.899Z,995.27
2019-01-17T01:41:40.887Z,995.29
2019-01-17T01:42:40.877Z,995.33
2019-01-17T01:43:40.865Z,995.25
2019-01-17T01:44:40.855Z,995.31
2019-01-17T01:45:40.847Z,995.21
2019-01-17T01:46:40.839Z,995.22
2019-01-17T01:47:40.830Z,995.24
2019-01-17T01:48:40.817Z,995.21
2019-01-17T01:49:40.804Z,995.26
2019-01-17T01:50:40.795Z,995.22
2019-01-17T01:51:40.790Z,995.21
2019-01-17T01:52:40.771Z,995.20
2019-01-17T01:53:40.761Z,995.21
2019-01-17T01:54:40.753Z,995.24
2019-01-17T01:55:40.741Z,995.16
2019-01-17T01:56:40.730Z,995.14
2019-01-17T01:57:40.719Z,995.22
2019-01-17T01:58:40.708Z,995.24
2019-01-17T01:59:40.701Z,995.29
2019-01-17T02:00:40.689Z,995.32
2019-01-17T02:01:40.679Z,995.34
2019-01-17T02:02:40.668Z,995.33
2019-01-17T02:03:40.656Z,995.31
2019-01-17T02:04:40.645Z,995.25
2019-01-17T02:05:40.635Z,995.24
2019-01-17T02:06:40.628Z,995.28
2019-01-17T02:07:40.614Z,995.21
2019-01-17T02:08:40.642Z,995.25
2019-01-17T02:09:40.591Z,995.28
2019-01-17T02:10:40.583Z,995.29
2019-01-17T02:11:40.571Z,995.28
2019-01-17T02:12:40.563Z,995.21
2019-01-17T02:13:40.555Z,995.20
2019-01-17T02:14:40.541Z,995.22
2019-01-17T02:15:40.531Z,995.22
2019-01-17T02:16:40.518Z,995.16
2019-01-17T02:17:40.508Z,995.12
2019-01-17T02:18:40.498Z,995.10
2019-01-17T02:19:40.493Z,995.05
2019-01-17T02:20:40.477Z,995.00
2019-01-17T02:21:40.474Z,995.02
2019-01-17T02:22:40.455Z,994.95
2019-01-17T02:23:40.447Z,995.01
2019-01-17T02:24:40.433Z,994.92
2019-01-17T02:25:40.423Z,994.92
2019-01-17T02:26:40.415Z,994.93
2019-01-17T02:27:40.401Z,994.99
2019-01-17T02:28:40.391Z,994.97
2019-01-17T02:29:40.384Z,994.99
2019-01-17T02:30:40.369Z,994.99
2019-01-17T02:31:40.359Z,994.98
2019-01-17T02:32:40.354Z,994.90
2019-01-17T02:33:40.338Z,994.92
2019-01-17T02:34:40.329Z,994.86
2019-01-17T02:35:40.317Z,994.81
2019-01-17T02:36:40.307Z,994.78
2019-01-17T02:37:40.297Z,994.80
2019-01-17T02:38:40.289Z,994.83
2019-01-17T02:39:40.275Z,994.77
2019-01-17T02:40:40.266Z,994.72
2019-01-17T02:41:40.256Z,994.72
2019-01-17T02:42:40.242Z,994.74
2019-01-17T02:43:40.239Z,994.72
2019-01-17T02:44:40.231Z,994.80
2019-01-17T02:45:40.218Z,994.80
2019-01-17T02:46:40.203Z,994.70
2019-01-17T02:47:40.192Z,994.62
2019-01-17T02:48:40.181Z,994.62
2019-01-17T02:49:40.169Z,994.63
2019-01-17T02:50:40.165Z,994.71
2019-01-17T02:51:40.150Z,994.65
2019-01-17T02:52:40.141Z,994.68
2019-01-17T02:53:40.131Z,994.69
2019-01-17T02:54:40.117Z,994.61
2019-01-17T02:55:40.105Z,994.57
2019-01-17T02:56:40.097Z,994.47
2019-01-17T02:57:40.084Z,994.48
2019-01-17T02:58:40.075Z,994.48
2019-01-17T02:59:40.064Z,994.50
2019-01-17T03:00:40.055Z,994.45
2019-01-17T03:01:40.046Z,994.51
2019-01-17T03:02:40.033Z,994.55
2019-01-17T03:03:40.022Z,994.58
2019-01-17T03:04:40.011Z,994.61
2019-01-17T03:05:40.002Z,994.64
2019-01-17T03:06:39.998Z,994.61
2019-01-17T03:07:39.990Z,994.62
2019-01-17T03:08:39.971Z,994.61
2019-01-17T03:09:39.958Z,994.56
2019-01-17T03:10:39.947Z,994.51
2019-01-17T03:11:39.937Z,994.58
2019-01-17T03:12:39.928Z,994.49
2019-01-17T03:13:39.917Z,994.48
2019-01-17T03:14:39.903Z,994.38
2019-01-17T03:15:39.895Z,994.37
2019-01-17T03:16:39.886Z,994.44
2019-01-17T03:17:39.873Z,994.45
2019-01-17T03:18:39.862Z,994.49
2019-01-17T03:19:39.852Z,994.48
2019-01-17T03:20:39.842Z,994.53
2019-01-17T03:21:39.831Z,994.53
2019-01-17T03:22:39.821Z,994.50
2019-01-17T03:23:39.810Z,994.41
2019-01-17T03:24:43.141Z,994.46
2019-01-17T03:25:39.787Z,994.47
2019-01-17T03:26:39.778Z,994.51
2019-01-17T03:27:39.768Z,994.42
2019-01-17T03:28:39.758Z,994.46
2019-01-17T03:29:39.750Z,994.44
2019-01-17T03:30:39.742Z,994.44
2019-01-17T03:31:39.729Z,994.47
2019-01-17T03:32:39.720Z,994.49
2019-01-17T03:33:39.703Z,994.43
2019-01-17T03:34:39.696Z,994.42
2019-01-17T03:35:39.682Z,994.45
2019-01-17T03:36:39.671Z,994.51
2019-01-17T03:37:39.661Z,994.48
2019-01-17T03:38:39.650Z,994.48
2019-01-17T03:39:39.639Z,994.42
2019-01-17T03:40:39.629Z,994.46
2019-01-17T03:41:39.620Z,994.43
2019-01-17T03:42:39.608Z,994.40
2019-01-17T03:43:39.596Z,994.36
2019-01-17T03:44:39.589Z,994.37
2019-01-17T03:45:39.575Z,994.38
2019-01-17T03:46:39.565Z,994.41
2019-01-17T03:47:39.558Z,994.38
2019-01-17T03:48:39.550Z,994.43
2019-01-17T03:49:39.535Z,994.44
2019-01-17T03:50:39.524Z,994.45
2019-01-17T03:51:39.519Z,994.44
2019-01-17T03:52:39.504Z,994.44
2019-01-17T03:53:39.493Z,994.34
2019-01-17T03:54:39.488Z,994.39
2019-01-17T03:55:39.470Z,994.34
2019-01-17T03:56:39.462Z,994.41
2019-01-17T03:57:39.448Z,994.45
2019-01-17T03:58:39.440Z,994.41
2019-01-17T03:59:39.431Z,994.40
2019-01-17T04:00:39.416Z,994.43
2019-01-17T04:01:39.410Z,994.45
2019-01-17T04:02:39.398Z,994.43
2019-01-17T04:03:39.385Z,994.33
2019-01-17T04:04:39.376Z,994.42
2019-01-17T04:05:39.382Z,994.43
2019-01-17T04:06:39.356Z,994.38
2019-01-17T04:07:39.347Z,994.38
2019-01-17T04:08:39.333Z,994.38
2019-01-17T04:09:39.322Z,994.36
2019-01-17T04:10:39.313Z,994.34
2019-01-17T04:11:39.300Z,994.36
2019-01-17T04:12:39.289Z,994.41
2019-01-17T04:13:39.277Z,994.39
2019-01-17T04:14:39.276Z,994.38
2019-01-17T04:15:39.260Z,994.42
2019-01-17T04:16:39.248Z,994.47
2019-01-17T04:17:39.238Z,994.47
2019-01-17T04:18:39.227Z,994.46
2019-01-17T04:19:39.234Z,994.43
2019-01-17T04:20:39.208Z,994.52
2019-01-17T04:21:39.194Z,994.40
2019-01-17T04:22:39.186Z,994.44
2019-01-17T04:23:39.176Z,994.47
2019-01-17T04:24:39.163Z,994.50
2019-01-17T04:25:39.151Z,994.48
2019-01-17T04:26:39.142Z,994.50
2019-01-17T04:27:39.133Z,994.51
2019-01-17T04:28:39.122Z,994.46
2019-01-17T04:29:39.109Z,994.51
2019-01-17T04:30:39.100Z,994.47
2019-01-17T04:31:39.088Z,994.44
2019-01-17T04:32:39.080Z,994.42
2019-01-17T04:33:39.067Z,994.42
2019-01-17T04:34:39.061Z,994.42
2019-01-17T04:35:39.045Z,994.41
2019-01-17T04:36:39.035Z,994.47
2019-01-17T04:37:39.024Z,994.44
2019-01-17T04:38:39.015Z,994.47
2019-01-17T04:39:39.005Z,994.44
2019-01-17T04:40:38.994Z,994.46
2019-01-17T04:41:38.987Z,994.51
2019-01-17T04:42:38.973Z,994.45
2019-01-17T04:43:38.963Z,994.48
2019-01-17T04:44:38.947Z,994.52
2019-01-17T04:45:38.939Z,994.51
2019-01-17T04:46:38.928Z,994.57
2019-01-17T04:47:38.921Z,994.55
2019-01-17T04:48:38.908Z,994.56
2019-01-17T04:49:38.895Z,994.54
2019-01-17T04:50:38.886Z,994.54
2019-01-17T04:51:38.881Z,994.55
2019-01-17T04:52:38.863Z,994.53
2019-01-17T04:53:38.854Z,994.48
2019-01-17T04:54:38.843Z,994.45
2019-01-17T04:55:38.834Z,994.49
2019-01-17T04:56:38.822Z,994.45
2019-01-17T04:57:38.813Z,994.39
2019-01-17T04:58:38.802Z,994.46
2019-01-17T04:59:38.790Z,994.45
2019-01-17T05:00:38.780Z,994.44
2019-01-17T05:01:38.767Z,994.40
2019-01-17T05:02:38.759Z,994.40
2019-01-17T05:03:38.751Z,994.44
2019-01-17T05:04:38.737Z,994.38
2019-01-17T05:05:38.729Z,994.40
2019-01-17T05:06:38.787Z,994.37
2019-01-17T05:07:38.707Z,994.41
2019-01-17T05:08:38.702Z,994.42
2019-01-17T05:09:38.690Z,994.37
2019-01-17T05:10:38.673Z,994.36
2019-01-17T05:11:38.670Z,994.42
2019-01-17T05:12:38.661Z,994.40
2019-01-17T05:13:38.641Z,994.46
2019-01-17T05:14:38.630Z,994.47
2019-01-17T05:15:38.623Z,994.45
2019-01-17T05:16:38.610Z,994.46
2019-01-17T05:17:38.600Z,994.48
2019-01-17T05:18:38.591Z,994.46
2019-01-17T05:19:38.580Z,994.44
2019-01-17T05:20:38.567Z,994.46
2019-01-17T05:21:38.558Z,994.48
2019-01-17T05:22:38.545Z,994.45
2019-01-17T05:23:38.534Z,994.46
2019-01-17T05:24:38.524Z,994.47
2019-01-17T05:25:38.512Z,994.51
2019-01-17T05:26:38.502Z,994.52
2019-01-17T05:27:38.494Z,994.63
2019-01-17T05:28:38.480Z,994.54
2019-01-17T05:29:38.471Z,994.56
2019-01-17T05:30:38.466Z,994.51
2019-01-17T05:31:38.448Z,994.55
2019-01-17T05:32:38.440Z,994.46
2019-01-17T05:33:38.429Z,994.56
2019-01-17T05:34:39.574Z,994.54
2019-01-17T05:35:38.416Z,994.52
2019-01-17T05:36:38.397Z,994.49
2019-01-17T05:37:38.386Z,994.52
2019-01-17T05:38:38.373Z,994.54
2019-01-17T05:39:38.364Z,994.51
2019-01-17T05:40:38.724Z,994.51
2019-01-17T05:41:38.347Z,994.54
2019-01-17T05:42:38.336Z,994.50
2019-01-17T05:43:38.321Z,994.50
2019-01-17T05:44:38.311Z,994.51
2019-01-17T05:45:38.299Z,994.46
2019-01-17T05:46:38.289Z,994.43
2019-01-17T05:47:38.279Z,994.45
2019-01-17T05:48:38.269Z,994.48
2019-01-17T05:49:38.256Z,994.48
2019-01-17T05:50:38.252Z,994.57
2019-01-17T05:51:38.240Z,994.54
2019-01-17T05:52:38.227Z,994.43
2019-01-17T05:53:38.219Z,994.45
2019-01-17T05:54:38.205Z,994.45
2019-01-17T05:55:38.192Z,994.50
2019-01-17T05:56:38.181Z,994.51
2019-01-17T05:57:38.172Z,994.47
2019-01-17T05:58:38.161Z,994.48
2019-01-17T05:59:38.152Z,994.45
2019-01-17T06:00:38.148Z,994.53
2019-01-17T06:01:38.129Z,994.50
2019-01-17T06:02:38.123Z,994.47
2019-01-17T06:03:38.107Z,994.55
2019-01-17T06:04:38.095Z,994.54
2019-01-17T06:05:38.085Z,994.51
2019-01-17T06:06:38.073Z,994.53
2019-01-17T06:07:38.063Z,994.50
2019-01-17T06:08:38.053Z,994.51
2019-01-17T06:09:38.042Z,994.48
2019-01-17T06:10:38.037Z,994.53
2019-01-17T06:11:38.022Z,994.58
2019-01-17T06:12:38.009Z,994.58
2019-01-17T06:13:38.000Z,994.58
2019-01-17T06:14:37.990Z,994.59
2019-01-17T06:15:37.978Z,994.60
2019-01-17T06:16:37.977Z,994.61
2019-01-17T06:17:37.967Z,994.64
2019-01-17T06:18:37.949Z,994.60
2019-01-17T06:19:37.935Z,994.60
2019-01-17T06:20:37.926Z,994.69
2019-01-17T06:21:37.913Z,994.67
2019-01-17T06:22:37.904Z,994.73
2019-01-17T06:23:37.894Z,994.77
2019-01-17T06:24:37.886Z,994.69
2019-01-17T06:25:37.876Z,994.75
2019-01-17T06:26:37.862Z,994.76
2019-01-17T06:27:37.848Z,994.81
2019-01-17T06:28:37.837Z,994.80
2019-01-17T06:29:37.828Z,994.80
2019-01-17T06:30:37.818Z,994.80
2019-01-17T06:31:37.806Z,994.84
2019-01-17T06:32:37.839Z,994.86
2019-01-17T06:33:37.786Z,994.83
2019-01-17T06:34:37.778Z,994.88
2019-01-17T06:35:37.764Z,994.88
2019-01-17T06:36:37.755Z,994.88
2019-01-17T06:37:37.742Z,994.79
2019-01-17T06:38:37.731Z,994.83
2019-01-17T06:39:37.720Z,994.91
2019-01-17T06:40:37.712Z,994.86
2019-01-17T06:41:37.699Z,994.92
2019-01-17T06:42:37.688Z,994.96
2019-01-17T06:43:37.682Z,994.99
2019-01-17T06:44:37.672Z,994.93
2019-01-17T06:45:37.657Z,995.00
2019-01-17T06:46:37.647Z,995.01
2019-01-17T06:47:37.637Z,994.97
2019-01-17T06:48:37.624Z,995.03
2019-01-17T06:49:37.618Z,995.00
2019-01-17T06:50:37.604Z,995.05
2019-01-17T06:51:37.591Z,995.07
2019-01-17T06:52:37.587Z,995.12
2019-01-17T06:53:37.570Z,995.09
2019-01-17T06:54:37.563Z,995.09
2019-01-17T06:55:37.551Z,995.11
2019-01-17T06:56:37.539Z,995.04
2019-01-17T06:57:37.528Z,994.98
2019-01-17T06:58:37.517Z,995.04
2019-01-17T06:59:37.507Z,995.04
2019-01-17T07:00:37.497Z,995.03
2019-01-17T07:01:37.485Z,995.00
2019-01-17T07:02:37.475Z,995.03
2019-01-17T07:03:37.466Z,994.98
2019-01-17T07:04:37.455Z,994.96
2019-01-17T07:05:37.443Z,995.04
2019-01-17T07:06:37.433Z,994.98
2019-01-17T07:07:37.422Z,995.00
2019-01-17T07:08:37.409Z,995.00
2019-01-17T07:09:37.402Z,995.10
2019-01-17T07:10:37.388Z,995.00
2019-01-17T07:11:37.379Z,995.04
2019-01-17T07:12:37.367Z,995.11
2019-01-17T07:13:37.358Z,995.08
2019-01-17T07:14:37.348Z,995.02
2019-01-17T07:15:37.337Z,995.05
2019-01-17T07:16:37.329Z,995.05
2019-01-17T07:17:37.316Z,995.17
2019-01-17T07:18:37.306Z,995.14
2019-01-17T07:19:37.294Z,995.07
2019-01-17T07:20:37.283Z,995.18
2019-01-17T07:21:37.273Z,995.20
2019-01-17T07:22:37.264Z,995.20
2019-01-17T07:23:37.252Z,995.17
2019-01-17T07:24:37.241Z,995.26
2019-01-17T07:25:40.974Z,995.23
2019-01-17T07:26:37.220Z,995.27
2019-01-17T07:27:37.208Z,995.27
2019-01-17T07:28:37.204Z,995.30
2019-01-17T07:29:37.189Z,995.29
2019-01-17T07:30:37.175Z,995.29
2019-01-17T07:31:37.168Z,995.34
2019-01-17T07:32:37.155Z,995.44
2019-01-17T07:33:37.144Z,995.46
2019-01-17T07:34:37.133Z,995.48
2019-01-17T07:35:37.121Z,995.58
2019-01-17T07:36:37.113Z,995.45
2019-01-17T07:37:37.104Z,995.50
2019-01-17T07:38:37.091Z,995.48
2019-01-17T07:39:37.096Z,995.47
2019-01-17T07:40:37.083Z,995.52
2019-01-17T07:41:37.060Z,995.51
2019-01-17T07:42:37.047Z,995.51
2019-01-17T07:43:37.040Z,995.55
2019-01-17T07:44:37.026Z,995.56
2019-01-17T07:45:37.015Z,995.51
2019-01-17T07:46:37.007Z,995.47
2019-01-17T07:47:36.995Z,995.42
2019-01-17T07:48:36.984Z,995.36
2019-01-17T07:49:36.975Z,995.36
2019-01-17T07:50:36.964Z,995.39
2019-01-17T07:51:36.951Z,995.40
2019-01-17T07:52:36.939Z,995.49
2019-01-17T07:53:36.930Z,995.58
2019-01-17T07:54:36.920Z,995.50
2019-01-17T07:55:36.910Z,995.53
2019-01-17T07:56:36.898Z,995.58
2019-01-17T07:57:36.889Z,995.57
2019-01-17T07:58:36.877Z,995.60
2019-01-17T07:59:36.867Z,995.58
2019-01-17T08:00:36.856Z,995.54
2019-01-17T08:01:36.845Z,995.64
2019-01-17T08:02:36.836Z,995.71
2019-01-17T08:03:36.822Z,995.67
2019-01-17T08:04:36.815Z,995.68
2019-01-17T08:05:36.801Z,995.71
2019-01-17T08:06:36.791Z,995.77
2019-01-17T08:07:36.781Z,995.75
2019-01-17T08:08:36.769Z,995.73
2019-01-17T08:09:36.761Z,995.72
2019-01-17T08:10:36.754Z,995.69
2019-01-17T08:11:36.743Z,995.69
2019-01-17T08:12:36.729Z,995.63
2019-01-17T08:13:36.723Z,995.76
2019-01-17T08:14:36.707Z,995.67
2019-01-17T08:15:36.695Z,995.70
2019-01-17T08:16:36.686Z,995.82
2019-01-17T08:17:36.675Z,995.79
2019-01-17T08:18:36.662Z,995.84
2019-01-17T08:19:36.652Z,995.88
2019-01-17T08:20:36.647Z,995.95
2019-01-17T08:21:36.631Z,995.89
2019-01-17T08:22:36.622Z,995.94
2019-01-17T08:23:36.609Z,995.94
2019-01-17T08:24:36.608Z,995.92
2019-01-17T08:25:36.588Z,995.87
2019-01-17T08:26:36.577Z,995.89
2019-01-17T08:27:36.569Z,995.86
2019-01-17T08:28:36.557Z,995.91
2019-01-17T08:29:36.549Z,995.92
2019-01-17T08:30:36.536Z,995.92
2019-01-17T08:31:36.531Z,995.86
2019-01-17T08:32:36.511Z,995.87
2019-01-17T08:33:36.502Z,995.79
2019-01-17T08:34:36.492Z,995.85
2019-01-17T08:35:36.482Z,995.85
2019-01-17T08:36:36.470Z,995.92
2019-01-17T08:37:36.459Z,996.01
2019-01-17T08:38:36.450Z,995.95
2019-01-17T08:39:36.441Z,995.91
2019-01-17T08:40:36.431Z,995.87
2019-01-17T08:41:36.419Z,995.88
2019-01-17T08:42:36.407Z,995.83
2019-01-17T08:43:36.397Z,995.84
2019-01-17T08:44:36.385Z,995.87
2019-01-17T08:45:36.383Z,995.90
2019-01-17T08:46:36.364Z,995.88
2019-01-17T08:47:36.355Z,995.91
2019-01-17T08:48:36.343Z,995.91
2019-01-17T08:49:36.332Z,995.91
2019-01-17T08:50:36.328Z,995.87
2019-01-17T08:51:36.312Z,995.90
2019-01-17T08:52:36.301Z,995.97
2019-01-17T08:53:36.293Z,995.95
2019-01-17T08:54:36.277Z,996.06
2019-01-17T08:55:36.270Z,996.01
2019-01-17T08:56:36.257Z,996.01
2019-01-17T08:57:36.248Z,996.00
2019-01-17T08:58:36.235Z,996.10
2019-01-17T08:59:36.228Z,996.09
2019-01-17T09:00:36.219Z,996.13
2019-01-17T09:01:36.205Z,996.17
2019-01-17T09:02:36.192Z,996.29
2019-01-17T09:03:36.186Z,996.34
2019-01-17T09:04:36.173Z,996.22
2019-01-17T09:05:36.160Z,996.34
2019-01-17T09:06:36.149Z,996.36
2019-01-17T09:07:36.140Z,996.36
2019-01-17T09:08:36.129Z,996.39
2019-01-17T09:09:36.117Z,996.41
2019-01-17T09:10:36.108Z,996.34
2019-01-17T09:11:36.100Z,996.32
2019-01-17T09:12:36.085Z,996.28
2019-01-17T09:13:36.075Z,996.33
2019-01-17T09:14:36.067Z,996.26
2019-01-17T09:15:36.057Z,996.26
2019-01-17T09:16:36.044Z,996.30
2019-01-17T09:17:36.035Z,996.32
2019-01-17T09:18:36.022Z,996.31
2019-01-17T09:19:36.011Z,996.38
2019-01-17T09:20:36.002Z,996.39
2019-01-17T09:21:35.990Z,996.37
2019-01-17T09:22:35.982Z,996.40
2019-01-17T09:23:35.972Z,996.38
2019-01-17T09:24:35.957Z,996.37
2019-01-17T09:25:35.948Z,996.36
2019-01-17T09:26:35.937Z,996.31
2019-01-17T09:27:35.931Z,996.30
2019-01-17T09:28:35.917Z,996.29
2019-01-17T09:29:35.909Z,996.40
2019-01-17T09:30:35.893Z,996.38
2019-01-17T09:31:35.884Z,996.44
2019-01-17T09:32:35.873Z,996.40
2019-01-17T09:33:35.862Z,996.39
2019-01-17T09:34:35.849Z,996.51
2019-01-17T09:35:35.839Z,996.48
2019-01-17T09:36:35.830Z,996.53
2019-01-17T09:37:35.819Z,996.53
2019-01-17T09:38:35.806Z,996.50
2019-01-17T09:39:35.804Z,996.46
2019-01-17T09:40:35.786Z,996.50
2019-01-17T09:41:35.776Z,996.52
2019-01-17T09:42:35.765Z,996.50
2019-01-17T09:43:35.757Z,996.55
2019-01-17T09:44:35.749Z,996.52
2019-01-17T09:45:35.779Z,996.49
2019-01-17T09:46:35.747Z,996.53
2019-01-17T09:47:35.713Z,996.46
2019-01-17T09:48:35.705Z,996.55
2019-01-17T09:49:35.692Z,996.54
2019-01-17T09:50:35.692Z,996.55
2019-01-17T09:51:35.678Z,996.52
2019-01-17T09:52:35.697Z,996.49
2019-01-17T09:53:35.649Z,996.50
2019-01-17T09:54:35.637Z,996.41
2019-01-17T09:55:35.635Z,996.49
2019-01-17T09:56:35.618Z,996.56
2019-01-17T09:57:35.603Z,996.58
2019-01-17T09:58:35.593Z,996.55
2019-01-17T09:59:35.585Z,996.55
2019-01-17T10:00:35.582Z,996.56
2019-01-17T10:01:35.562Z,996.56
2019-01-17T10:02:35.552Z,996.46
2019-01-17T10:03:35.543Z,996.50
2019-01-17T10:04:35.529Z,996.43
2019-01-17T10:05:35.521Z,996.46
2019-01-17T10:06:35.509Z,996.58
2019-01-17T10:07:35.497Z,996.47
2019-01-17T10:08:35.486Z,996.50
2019-01-17T10:09:35.475Z,996.54
2019-01-17T10:10:35.466Z,996.55
2019-01-17T10:11:35.459Z,996.51
2019-01-17T10:12:35.443Z,996.56
2019-01-17T10:13:35.435Z,996.53
2019-01-17T10:14:35.421Z,996.44
2019-01-17T10:15:35.417Z,996.51
2019-01-17T10:16:35.402Z,996.48
2019-01-17T10:17:35.389Z,996.54
2019-01-17T10:18:35.379Z,996.56
2019-01-17T10:19:35.370Z,996.47
2019-01-17T10:20:35.359Z,996.42
2019-01-17T10:21:35.353Z,996.47
2019-01-17T10:22:35.338Z,996.50
2019-01-17T10:23:35.328Z,996.49
2019-01-17T10:24:35.314Z,996.48
2019-01-17T10:25:35.306Z,996.46
2019-01-17T10:26:35.294Z,996.45
2019-01-17T10:27:35.283Z,996.46
2019-01-17T10:28:35.274Z,996.48
2019-01-17T10:29:35.262Z,996.44
2019-01-17T10:30:35.250Z,996.54
2019-01-17T10:31:35.240Z,996.50
2019-01-17T10:32:35.232Z,996.50
2019-01-17T10:33:35.218Z,996.51
2019-01-17T10:34:35.207Z,996.49
2019-01-17T10:35:35.199Z,996.45
2019-01-17T10:36:35.188Z,996.47
2019-01-17T10:37:35.178Z,996.45
2019-01-17T10:38:35.165Z,996.45
2019-01-17T10:39:35.156Z,996.44
2019-01-17T10:40:35.472Z,996.38
2019-01-17T10:41:35.135Z,996.41
2019-01-17T10:42:35.124Z,996.38
2019-01-17T10:43:35.113Z,996.33
2019-01-17T10:44:35.107Z,996.29
2019-01-17T10:45:35.113Z,996.30
2019-01-17T10:46:35.090Z,996.32
2019-01-17T10:47:35.081Z,996.30
2019-01-17T10:48:35.059Z,996.27
2019-01-17T10:49:35.049Z,996.25
2019-01-17T10:50:35.039Z,996.25
2019-01-17T10:51:35.025Z,996.13
2019-01-17T10:52:35.017Z,996.15
2019-01-17T10:53:35.006Z,996.20
2019-01-17T10:54:34.995Z,996.05
2019-01-17T10:55:34.985Z,996.10
2019-01-17T10:56:41.030Z,996.12
2019-01-17T10:57:35.962Z,996.14
2019-01-17T10:58:34.952Z,996.15
2019-01-17T10:59:34.945Z,996.17
2019-01-17T11:00:34.932Z,996.16
2019-01-17T11:01:34.920Z,996.18
2019-01-17T11:02:34.908Z,996.10
2019-01-17T11:03:34.901Z,996.10
2019-01-17T11:04:34.887Z,996.08
2019-01-17T11:05:34.884Z,996.10
2019-01-17T11:06:34.866Z,996.09
2019-01-17T11:07:34.857Z,996.04
2019-01-17T11:08:34.845Z,996.04
2019-01-17T11:09:34.835Z,996.07
2019-01-17T11:10:34.825Z,996.07
2019-01-17T11:11:34.814Z,996.14
2019-01-17T11:12:34.801Z,996.09
2019-01-17T11:13:34.793Z,996.13
2019-01-17T11:14:34.782Z,996.06
2019-01-17T11:15:34.774Z,996.04
2019-01-17T11:16:34.758Z,996.04
2019-01-17T11:17:34.751Z,995.96
2019-01-17T11:18:34.740Z,995.96
2019-01-17T11:19:34.729Z,996.00
2019-01-17T11:20:34.716Z,996.07
2019-01-17T11:21:34.706Z,996.01
2019-01-17T11:22:34.696Z,995.96
2019-01-17T11:23:34.686Z,995.90
2019-01-17T11:24:34.673Z,995.96
2019-01-17T11:25:34.663Z,995.89
2019-01-17T11:26:34.664Z,995.92
2019-01-17T11:27:34.641Z,995.91
2019-01-17T11:28:34.634Z,995.89
2019-01-17T11:29:34.620Z,995.82
2019-01-17T11:30:34.611Z,995.86
2019-01-17T11:31:34.600Z,995.84
2019-01-17T11:32:34.588Z,995.91
2019-01-17T11:33:34.579Z,995.87
2019-01-17T11:34:34.571Z,995.89
2019-01-17T11:35:34.554Z,995.91
2019-01-17T11:36:34.544Z,995.92
2019-01-17T11:37:34.532Z,995.91
2019-01-17T11:38:34.522Z,995.87
2019-01-17T11:39:34.513Z,995.78
2019-01-17T11:40:34.501Z,995.89
2019-01-17T11:41:34.488Z,995.81
2019-01-17T11:42:34.478Z,995.81
2019-01-17T11:43:34.467Z,995.73
2019-01-17T11:44:34.455Z,995.73
2019-01-17T11:45:34.445Z,995.75
2019-01-17T11:46:34.433Z,995.87
2019-01-17T11:47:34.435Z,995.73
2019-01-17T11:48:34.413Z,995.77
2019-01-17T11:49:34.403Z,995.73
2019-01-17T11:50:34.390Z,995.84
2019-01-17T11:51:34.383Z,995.79
2019-01-17T11:52:35.297Z,995.71
2019-01-17T11:53:35.666Z,995.78
2019-01-17T11:54:36.021Z,995.79
2019-01-17T11:55:35.591Z,995.78
2019-01-17T11:56:40.727Z,995.78
2019-01-17T11:57:35.316Z,995.81
2019-01-17T11:58:34.308Z,995.82
2019-01-17T11:59:34.300Z,995.72
2019-01-17T12:00:34.287Z,995.71
2019-01-17T12:01:34.274Z,995.73
2019-01-17T12:02:39.109Z,995.69
2019-01-17T12:03:35.251Z,995.65
2019-01-17T12:04:34.247Z,995.74
2019-01-17T12:05:34.233Z,995.72
2019-01-17T12:06:34.224Z,995.75
2019-01-17T12:07:34.209Z,995.76
2019-01-17T12:08:34.199Z,995.76
2019-01-17T12:09:34.189Z,995.76
2019-01-17T12:10:34.178Z,995.74
2019-01-17T12:11:34.168Z,995.69
2019-01-17T12:12:34.159Z,995.74
2019-01-17T12:13:34.145Z,995.72
2019-01-17T12:14:34.134Z,995.63
2019-01-17T12:15:34.123Z,995.68
2019-01-17T12:16:34.117Z,995.65
2019-01-17T12:17:34.105Z,995.62
2019-01-17T12:18:34.094Z,995.59
2019-01-17T12:19:34.084Z,995.61
2019-01-17T12:20:34.386Z,995.66
2019-01-17T12:21:34.060Z,995.61
2019-01-17T12:22:34.052Z,995.68
2019-01-17T12:23:34.039Z,995.58
2019-01-17T12:24:34.033Z,995.64
2019-01-17T12:25:34.021Z,995.65
2019-01-17T12:26:34.283Z,995.60
2019-01-17T12:27:34.353Z,995.63
2019-01-17T12:28:33.985Z,995.62